sensor_id;sensor_type;location;lat;lon;timestamp;P1;durP1;ratioP1;P2;durP2;ratioP2
75209;SDS011;63796;53.136;14.882;2023-08-06T02:13:27;5.40;;;3.60;;
75209;SDS011;63796;53.136;14.882;2023-08-06T02:15:55;6.20;;;3.80;;
75209;SDS011;63796;53.136;14.882;2023-08-06T02:18:22;4.40;;;3.20;;
75209;SDS011;63796;53.136;14.882;2023-08-06T02:20:56;6.00;;;3.80;;
75209;SDS011;63796;53.136;14.882;2023-08-06T02:23:27;4.70;;;3.20;;
75209;SDS011;63796;53.136;14.882;2023-08-06T02:26:02;6.40;;;3.40;;
75209;SDS011;63796;53.136;14.882;2023-08-06T02:28:30;5.30;;;3.60;;
75209;SDS011;63796;53.136;14.882;2023-08-06T02:30:58;4.70;;;3.60;;
75209;SDS011;63796;53.136;14.882;2023-08-06T02:33:26;4.80;;;3.40;;
75209;SDS011;63796;53.136;14.882;2023-08-06T02:36:03;4.40;;;3.60;;
75209;SDS011;63796;53.136;14.882;2023-08-06T02:38:32;4.60;;;3.30;;
75209;SDS011;63796;53.136;14.882;2023-08-06T02:41:02;4.50;;;3.40;;
75209;SDS011;63796;53.136;14.882;2023-08-06T02:43:31;3.40;;;3.00;;
75209;SDS011;63796;53.136;14.882;2023-08-06T02:45:59;3.70;;;2.40;;
75209;SDS011;63796;53.136;14.882;2023-08-06T02:48:27;4.50;;;2.70;;
75209;SDS011;63796;53.136;14.882;2023-08-06T02:50:59;3.60;;;3.00;;
75209;SDS011;63796;53.136;14.882;2023-08-06T02:53:26;3.80;;;3.40;;
75209;SDS011;63796;53.136;14.882;2023-08-06T02:55:54;4.70;;;3.20;;
75209;SDS011;63796;53.136;14.882;2023-08-06T02:58:22;3.90;;;3.10;;
75209;SDS011;63796;53.136;14.882;2023-08-06T03:01:03;3.00;;;2.80;;
75209;SDS011;63796;53.136;14.882;2023-08-06T03:03:31;4.50;;;3.10;;
75209;SDS011;63796;53.136;14.882;2023-08-06T03:06:00;3.00;;;2.40;;
75209;SDS011;63796;53.136;14.882;2023-08-06T03:08:28;3.50;;;2.30;;
75209;SDS011;63796;53.136;14.882;2023-08-06T03:10:56;4.50;;;3.00;;
75209;SDS011;63796;53.136;14.882;2023-08-06T03:13:23;3.20;;;2.40;;
75209;SDS011;63796;53.136;14.882;2023-08-06T03:15:58;3.10;;;2.30;;
75209;SDS011;63796;53.136;14.882;2023-08-06T03:18:26;5.70;;;1.90;;
75209;SDS011;63796;53.136;14.882;2023-08-06T03:20:54;4.00;;;2.70;;
75209;SDS011;63796;53.136;14.882;2023-08-06T03:23:21;3.00;;;2.10;;
75209;SDS011;63796;53.136;14.882;2023-08-06T03:25:49;3.30;;;3.00;;
75209;SDS011;63796;53.136;14.882;2023-08-06T03:28:16;3.80;;;2.40;;
75209;SDS011;63796;53.136;14.882;2023-08-06T03:30:44;2.90;;;2.60;;
75209;SDS011;63796;53.136;14.882;2023-08-06T03:33:11;6.20;;;2.70;;
75209;SDS011;63796;53.136;14.882;2023-08-06T03:35:38;2.70;;;2.50;;
75209;SDS011;63796;53.136;14.882;2023-08-06T03:38:06;5.60;;;2.90;;
75209;SDS011;63796;53.136;14.882;2023-08-06T03:40:35;2.80;;;2.60;;
75209;SDS011;63796;53.136;14.882;2023-08-06T03:43:03;2.80;;;2.60;;
75209;SDS011;63796;53.136;14.882;2023-08-06T03:45:30;2.80;;;2.60;;
75209;SDS011;63796;53.136;14.882;2023-08-06T03:47:57;3.00;;;2.30;;
75209;SDS011;63796;53.136;14.882;2023-08-06T03:50:25;2.80;;;2.50;;
75209;SDS011;63796;53.136;14.882;2023-08-06T03:52:52;3.00;;;2.70;;
75209;SDS011;63796;53.136;14.882;2023-08-06T03:55:20;2.60;;;2.30;;
75209;SDS011;63796;53.136;14.882;2023-08-06T03:57:48;3.80;;;2.30;;
75209;SDS011;63796;53.136;14.882;2023-08-06T04:00:15;2.30;;;2.10;;
75209;SDS011;63796;53.136;14.882;2023-08-06T04:02:43;3.00;;;2.20;;
75209;SDS011;63796;53.136;14.882;2023-08-06T04:05:12;3.20;;;1.90;;
75209;SDS011;63796;53.136;14.882;2023-08-06T04:07:39;2.40;;;1.90;;
75209;SDS011;63796;53.136;14.882;2023-08-06T04:10:06;2.00;;;1.80;;
75209;SDS011;63796;53.136;14.882;2023-08-06T04:12:34;3.80;;;2.20;;
75209;SDS011;63796;53.136;14.882;2023-08-06T04:15:04;4.00;;;2.00;;
75209;SDS011;63796;53.136;14.882;2023-08-06T04:17:31;3.10;;;2.20;;
75209;SDS011;63796;53.136;14.882;2023-08-06T04:19:58;4.70;;;2.20;;
75209;SDS011;63796;53.136;14.882;2023-08-06T04:22:26;3.50;;;2.00;;
75209;SDS011;63796;53.136;14.882;2023-08-06T04:24:53;2.10;;;1.70;;
75209;SDS011;63796;53.136;14.882;2023-08-06T04:27:20;3.10;;;1.90;;
75209;SDS011;63796;53.136;14.882;2023-08-06T04:29:48;2.40;;;2.00;;
75209;SDS011;63796;53.136;14.882;2023-08-06T04:32:15;2.80;;;1.60;;
75209;SDS011;63796;53.136;14.882;2023-08-06T04:34:42;2.50;;;1.80;;
75209;SDS011;63796;53.136;14.882;2023-08-06T04:37:10;3.30;;;1.80;;
75209;SDS011;63796;53.136;14.882;2023-08-06T04:39:37;3.00;;;1.80;;
75209;SDS011;63796;53.136;14.882;2023-08-06T04:42:05;1.80;;;1.70;;
75209;SDS011;63796;53.136;14.882;2023-08-06T04:44:33;5.10;;;1.70;;
75209;SDS011;63796;53.136;14.882;2023-08-06T04:47:00;3.00;;;1.60;;
75209;SDS011;63796;53.136;14.882;2023-08-06T04:49:27;1.90;;;1.70;;
75209;SDS011;63796;53.136;14.882;2023-08-06T04:51:55;3.80;;;1.60;;
75209;SDS011;63796;53.136;14.882;2023-08-06T04:54:22;1.80;;;1.50;;
75209;SDS011;63796;53.136;14.882;2023-08-06T04:56:49;3.10;;;1.80;;
75209;SDS011;63796;53.136;14.882;2023-08-06T04:59:16;2.20;;;1.70;;
75209;SDS011;63796;53.136;14.882;2023-08-06T05:01:44;2.30;;;1.50;;
75209;SDS011;63796;53.136;14.882;2023-08-06T05:04:11;2.70;;;1.60;;
75209;SDS011;63796;53.136;14.882;2023-08-06T05:06:39;1.90;;;1.70;;
75209;SDS011;63796;53.136;14.882;2023-08-06T05:09:07;3.20;;;1.60;;
75209;SDS011;63796;53.136;14.882;2023-08-06T05:11:34;1.60;;;1.50;;
75209;SDS011;63796;53.136;14.882;2023-08-06T05:14:02;1.60;;;1.50;;
75209;SDS011;63796;53.136;14.882;2023-08-06T05:16:29;2.70;;;1.40;;
75209;SDS011;63796;53.136;14.882;2023-08-06T05:18:56;2.30;;;0.90;;
75209;SDS011;63796;53.136;14.882;2023-08-06T05:21:24;2.60;;;1.10;;
75209;SDS011;63796;53.136;14.882;2023-08-06T05:23:51;2.80;;;1.40;;
75209;SDS011;63796;53.136;14.882;2023-08-06T05:26:18;1.30;;;1.20;;
75209;SDS011;63796;53.136;14.882;2023-08-06T05:28:46;2.80;;;1.10;;
75209;SDS011;63796;53.136;14.882;2023-08-06T05:31:14;1.10;;;0.90;;
75209;SDS011;63796;53.136;14.882;2023-08-06T05:33:41;4.90;;;1.30;;
75209;SDS011;63796;53.136;14.882;2023-08-06T05:36:09;2.40;;;1.50;;
75209;SDS011;63796;53.136;14.882;2023-08-06T05:38:36;1.60;;;1.40;;
75209;SDS011;63796;53.136;14.882;2023-08-06T05:41:03;1.80;;;1.50;;
75209;SDS011;63796;53.136;14.882;2023-08-06T05:43:31;6.10;;;1.60;;
75209;SDS011;63796;53.136;14.882;2023-08-06T05:45:58;1.70;;;1.40;;
75209;SDS011;63796;53.136;14.882;2023-08-06T05:48:26;1.90;;;1.60;;
75209;SDS011;63796;53.136;14.882;2023-08-06T05:50:54;1.60;;;1.10;;
75209;SDS011;63796;53.136;14.882;2023-08-06T05:53:22;1.80;;;1.40;;
75209;SDS011;63796;53.136;14.882;2023-08-06T05:55:50;1.40;;;1.30;;
75209;SDS011;63796;53.136;14.882;2023-08-06T05:58:20;1.50;;;1.30;;
75209;SDS011;63796;53.136;14.882;2023-08-06T06:00:47;1.40;;;1.30;;
75209;SDS011;63796;53.136;14.882;2023-08-06T06:03:14;2.30;;;1.30;;
75209;SDS011;63796;53.136;14.882;2023-08-06T06:05:42;2.70;;;1.40;;
75209;SDS011;63796;53.136;14.882;2023-08-06T06:08:09;1.50;;;1.30;;
75209;SDS011;63796;53.136;14.882;2023-08-06T06:10:37;3.70;;;2.00;;
75209;SDS011;63796;53.136;14.882;2023-08-06T06:13:04;1.70;;;1.10;;
75209;SDS011;63796;53.136;14.882;2023-08-06T06:15:35;1.50;;;1.30;;
75209;SDS011;63796;53.136;14.882;2023-08-06T06:18:03;3.00;;;1.50;;
75209;SDS011;63796;53.136;14.882;2023-08-06T06:20:32;2.10;;;1.40;;
75209;SDS011;63796;53.136;14.882;2023-08-06T06:23:00;2.00;;;1.30;;
75209;SDS011;63796;53.136;14.882;2023-08-06T06:25:27;1.80;;;1.10;;
75209;SDS011;63796;53.136;14.882;2023-08-06T06:27:54;2.90;;;0.90;;
75209;SDS011;63796;53.136;14.882;2023-08-06T06:30:22;17.30;;;13.40;;
75209;SDS011;63796;53.136;14.882;2023-08-06T06:32:49;3.00;;;2.50;;
75209;SDS011;63796;53.136;14.882;2023-08-06T06:35:17;1.80;;;1.50;;
75209;SDS011;63796;53.136;14.882;2023-08-06T06:37:45;16.50;;;11.10;;
75209;SDS011;63796;53.136;14.882;2023-08-06T06:40:12;4.00;;;3.40;;
75209;SDS011;63796;53.136;14.882;2023-08-06T06:42:40;4.60;;;3.40;;
75209;SDS011;63796;53.136;14.882;2023-08-06T06:45:08;1.50;;;1.40;;
75209;SDS011;63796;53.136;14.882;2023-08-06T06:47:35;3.40;;;2.20;;
75209;SDS011;63796;53.136;14.882;2023-08-06T06:50:03;2.90;;;1.90;;
75209;SDS011;63796;53.136;14.882;2023-08-06T06:52:30;2.50;;;1.60;;
75209;SDS011;63796;53.136;14.882;2023-08-06T06:54:58;5.30;;;1.70;;
75209;SDS011;63796;53.136;14.882;2023-08-06T06:57:26;1.70;;;1.60;;
75209;SDS011;63796;53.136;14.882;2023-08-06T06:59:53;1.70;;;1.50;;
75209;SDS011;63796;53.136;14.882;2023-08-06T07:02:20;1.30;;;1.20;;
75209;SDS011;63796;53.136;14.882;2023-08-06T07:04:49;2.80;;;1.50;;
75209;SDS011;63796;53.136;14.882;2023-08-06T07:07:17;2.20;;;1.60;;
75209;SDS011;63796;53.136;14.882;2023-08-06T07:09:44;3.50;;;1.70;;
75209;SDS011;63796;53.136;14.882;2023-08-06T07:12:12;10.10;;;7.50;;
75209;SDS011;63796;53.136;14.882;2023-08-06T07:14:39;6.10;;;3.90;;
75209;SDS011;63796;53.136;14.882;2023-08-06T07:17:07;3.90;;;3.00;;
75209;SDS011;63796;53.136;14.882;2023-08-06T07:19:34;2.30;;;1.50;;
75209;SDS011;63796;53.136;14.882;2023-08-06T07:22:01;2.70;;;1.40;;
75209;SDS011;63796;53.136;14.882;2023-08-06T07:24:29;2.20;;;1.40;;
75209;SDS011;63796;53.136;14.882;2023-08-06T07:26:56;2.80;;;1.50;;
75209;SDS011;63796;53.136;14.882;2023-08-06T07:29:24;2.30;;;1.30;;
75209;SDS011;63796;53.136;14.882;2023-08-06T07:31:55;1.60;;;1.30;;
75209;SDS011;63796;53.136;14.882;2023-08-06T07:34:22;2.00;;;1.40;;
75209;SDS011;63796;53.136;14.882;2023-08-06T07:36:50;1.70;;;1.20;;
75209;SDS011;63796;53.136;14.882;2023-08-06T07:39:17;3.40;;;1.30;;
75209;SDS011;63796;53.136;14.882;2023-08-06T07:41:45;3.10;;;1.30;;
75209;SDS011;63796;53.136;14.882;2023-08-06T07:44:13;2.20;;;1.50;;
75209;SDS011;63796;53.136;14.882;2023-08-06T07:46:40;1.20;;;0.80;;
75209;SDS011;63796;53.136;14.882;2023-08-06T07:49:09;1.60;;;1.10;;
75209;SDS011;63796;53.136;14.882;2023-08-06T07:51:38;1.10;;;1.00;;
75209;SDS011;63796;53.136;14.882;2023-08-06T07:54:06;1.30;;;0.90;;
75209;SDS011;63796;53.136;14.882;2023-08-06T07:56:33;1.90;;;0.90;;
75209;SDS011;63796;53.136;14.882;2023-08-06T07:59:03;1.90;;;1.10;;
75209;SDS011;63796;53.136;14.882;2023-08-06T08:01:30;10.20;;;1.70;;
75209;SDS011;63796;53.136;14.882;2023-08-06T08:03:57;1.40;;;1.00;;
75209;SDS011;63796;53.136;14.882;2023-08-06T08:06:25;1.80;;;1.00;;
75209;SDS011;63796;53.136;14.882;2023-08-06T08:08:53;2.10;;;0.90;;
75209;SDS011;63796;53.136;14.882;2023-08-06T08:11:20;1.40;;;1.20;;
75209;SDS011;63796;53.136;14.882;2023-08-06T08:13:47;1.40;;;1.00;;
75209;SDS011;63796;53.136;14.882;2023-08-06T08:16:15;4.10;;;3.70;;
75209;SDS011;63796;53.136;14.882;2023-08-06T08:18:42;2.50;;;2.10;;
75209;SDS011;63796;53.136;14.882;2023-08-06T08:21:09;2.70;;;2.40;;
75209;SDS011;63796;53.136;14.882;2023-08-06T08:23:38;1.70;;;1.10;;
75209;SDS011;63796;53.136;14.882;2023-08-06T08:26:06;1.80;;;1.60;;
75209;SDS011;63796;53.136;14.882;2023-08-06T08:28:33;1.40;;;1.30;;
75209;SDS011;63796;53.136;14.882;2023-08-06T08:31:01;2.70;;;1.10;;
75209;SDS011;63796;53.136;14.882;2023-08-06T08:33:28;1.10;;;1.00;;
75209;SDS011;63796;53.136;14.882;2023-08-06T08:35:55;2.20;;;1.00;;
75209;SDS011;63796;53.136;14.882;2023-08-06T08:38:25;1.80;;;1.00;;
75209;SDS011;63796;53.136;14.882;2023-08-06T08:40:53;2.30;;;1.10;;
75209;SDS011;63796;53.136;14.882;2023-08-06T08:43:21;1.30;;;1.00;;
75209;SDS011;63796;53.136;14.882;2023-08-06T08:45:50;1.80;;;1.10;;
75209;SDS011;63796;53.136;14.882;2023-08-06T08:48:18;1.70;;;1.10;;
75209;SDS011;63796;53.136;14.882;2023-08-06T08:50:49;1.80;;;0.90;;
75209;SDS011;63796;53.136;14.882;2023-08-06T08:53:17;1.30;;;0.70;;
75209;SDS011;63796;53.136;14.882;2023-08-06T08:55:47;2.90;;;0.80;;
75209;SDS011;63796;53.136;14.882;2023-08-06T08:58:15;2.00;;;1.10;;
75209;SDS011;63796;53.136;14.882;2023-08-06T09:00:47;1.40;;;1.30;;
75209;SDS011;63796;53.136;14.882;2023-08-06T09:03:17;2.40;;;1.10;;
75209;SDS011;63796;53.136;14.882;2023-08-06T09:05:48;2.20;;;1.00;;
75209;SDS011;63796;53.136;14.882;2023-08-06T09:08:18;6.60;;;4.50;;
75209;SDS011;63796;53.136;14.882;2023-08-06T09:10:48;1.70;;;1.40;;
75209;SDS011;63796;53.136;14.882;2023-08-06T09:13:16;4.90;;;1.60;;
75209;SDS011;63796;53.136;14.882;2023-08-06T09:15:43;2.00;;;1.40;;
75209;SDS011;63796;53.136;14.882;2023-08-06T09:18:12;12.30;;;9.50;;
75209;SDS011;63796;53.136;14.882;2023-08-06T09:20:39;3.60;;;2.30;;
75209;SDS011;63796;53.136;14.882;2023-08-06T09:23:10;1.50;;;1.00;;
75209;SDS011;63796;53.136;14.882;2023-08-06T09:25:38;2.50;;;1.20;;
75209;SDS011;63796;53.136;14.882;2023-08-06T09:28:09;2.00;;;1.10;;
75209;SDS011;63796;53.136;14.882;2023-08-06T09:30:37;1.60;;;1.00;;
75209;SDS011;63796;53.136;14.882;2023-08-06T09:33:09;3.30;;;1.20;;
75209;SDS011;63796;53.136;14.882;2023-08-06T09:35:37;5.80;;;1.00;;
75209;SDS011;63796;53.136;14.882;2023-08-06T09:38:08;1.50;;;1.10;;
75209;SDS011;63796;53.136;14.882;2023-08-06T09:40:38;1.70;;;1.10;;
75209;SDS011;63796;53.136;14.882;2023-08-06T09:43:06;1.60;;;1.50;;
75209;SDS011;63796;53.136;14.882;2023-08-06T09:45:36;3.70;;;1.30;;
75209;SDS011;63796;53.136;14.882;2023-08-06T09:48:06;2.00;;;1.40;;
75209;SDS011;63796;53.136;14.882;2023-08-06T09:50:38;1.50;;;1.20;;
75209;SDS011;63796;53.136;14.882;2023-08-06T09:53:07;2.30;;;1.60;;
75209;SDS011;63796;53.136;14.882;2023-08-06T09:55:36;2.70;;;1.80;;
75209;SDS011;63796;53.136;14.882;2023-08-06T09:58:03;2.10;;;1.80;;
75209;SDS011;63796;53.136;14.882;2023-08-06T10:00:33;3.00;;;2.10;;
75209;SDS011;63796;53.136;14.882;2023-08-06T10:03:06;3.60;;;3.00;;
75209;SDS011;63796;53.136;14.882;2023-08-06T10:05:36;4.00;;;2.80;;
75209;SDS011;63796;53.136;14.882;2023-08-06T10:08:05;7.10;;;3.80;;
75209;SDS011;63796;53.136;14.882;2023-08-06T10:10:35;13.40;;;8.50;;
75209;SDS011;63796;53.136;14.882;2023-08-06T10:13:04;8.80;;;5.80;;
75209;SDS011;63796;53.136;14.882;2023-08-06T10:15:33;10.50;;;6.80;;
75209;SDS011;63796;53.136;14.882;2023-08-06T10:18:01;12.70;;;8.10;;
75209;SDS011;63796;53.136;14.882;2023-08-06T10:20:34;17.70;;;10.50;;
75209;SDS011;63796;53.136;14.882;2023-08-06T10:23:06;18.90;;;10.50;;
75209;SDS011;63796;53.136;14.882;2023-08-06T10:25:35;21.10;;;11.30;;
75209;SDS011;63796;53.136;14.882;2023-08-06T10:28:11;17.60;;;10.70;;
75209;SDS011;63796;53.136;14.882;2023-08-06T10:30:49;17.10;;;10.20;;
75209;SDS011;63796;53.136;14.882;2023-08-06T10:33:19;13.60;;;8.60;;
75209;SDS011;63796;53.136;14.882;2023-08-06T10:35:48;15.20;;;9.00;;
75209;SDS011;63796;53.136;14.882;2023-08-06T10:38:25;13.30;;;7.00;;
75209;SDS011;63796;53.136;14.882;2023-08-06T10:43:28;7.60;;;4.60;;
75209;SDS011;63796;53.136;14.882;2023-08-06T10:45:57;4.60;;;3.40;;
75209;SDS011;63796;53.136;14.882;2023-08-06T10:48:41;4.70;;;2.90;;
75209;SDS011;63796;53.136;14.882;2023-08-06T10:51:10;5.70;;;2.20;;
75209;SDS011;63796;53.136;14.882;2023-08-06T10:53:42;2.70;;;2.30;;
75209;SDS011;63796;53.136;14.882;2023-08-06T10:56:16;1.90;;;1.70;;
75209;SDS011;63796;53.136;14.882;2023-08-06T10:58:46;1.90;;;1.30;;
75209;SDS011;63796;53.136;14.882;2023-08-06T11:01:14;4.00;;;1.40;;
75209;SDS011;63796;53.136;14.882;2023-08-06T11:03:44;2.10;;;1.30;;
75209;SDS011;63796;53.136;14.882;2023-08-06T11:06:20;2.80;;;1.40;;
75209;SDS011;63796;53.136;14.882;2023-08-06T11:08:50;2.00;;;1.20;;
75209;SDS011;63796;53.136;14.882;2023-08-06T11:11:18;2.10;;;1.00;;
75209;SDS011;63796;53.136;14.882;2023-08-06T11:13:49;2.00;;;1.00;;
75209;SDS011;63796;53.136;14.882;2023-08-06T11:16:19;2.20;;;1.00;;
75209;SDS011;63796;53.136;14.882;2023-08-06T11:18:46;2.30;;;1.20;;
75209;SDS011;63796;53.136;14.882;2023-08-06T11:21:19;1.60;;;1.10;;
75209;SDS011;63796;53.136;14.882;2023-08-06T11:23:46;4.10;;;3.40;;
75209;SDS011;63796;53.136;14.882;2023-08-06T11:26:21;1.50;;;1.30;;
75209;SDS011;63796;53.136;14.882;2023-08-06T11:28:51;2.80;;;2.50;;
75209;SDS011;63796;53.136;14.882;2023-08-06T11:31:22;4.00;;;1.90;;
75209;SDS011;63796;53.136;14.882;2023-08-06T11:33:51;1.80;;;1.30;;
75209;SDS011;63796;53.136;14.882;2023-08-06T11:36:29;2.30;;;1.50;;
75209;SDS011;63796;53.136;14.882;2023-08-06T11:38:58;2.40;;;1.70;;
75209;SDS011;63796;53.136;14.882;2023-08-06T11:41:29;2.20;;;1.20;;
75209;SDS011;63796;53.136;14.882;2023-08-06T11:43:58;2.20;;;1.60;;
75209;SDS011;63796;53.136;14.882;2023-08-06T11:46:27;2.30;;;1.60;;
75209;SDS011;63796;53.136;14.882;2023-08-06T11:48:58;2.60;;;1.20;;
75209;SDS011;63796;53.136;14.882;2023-08-06T11:51:26;1.90;;;1.30;;
75209;SDS011;63796;53.136;14.882;2023-08-06T11:53:57;2.00;;;1.30;;
75209;SDS011;63796;53.136;14.882;2023-08-06T11:56:25;3.50;;;2.10;;
75209;SDS011;63796;53.136;14.882;2023-08-06T11:58:55;2.30;;;1.60;;
75209;SDS011;63796;53.136;14.882;2023-08-06T12:01:23;3.30;;;1.90;;
75209;SDS011;63796;53.136;14.882;2023-08-06T12:03:50;2.70;;;1.90;;
75209;SDS011;63796;53.136;14.882;2023-08-06T12:06:18;1.30;;;0.80;;
75209;SDS011;63796;53.136;14.882;2023-08-06T12:08:46;2.80;;;1.10;;
75209;SDS011;63796;53.136;14.882;2023-08-06T12:11:21;2.00;;;1.00;;
75209;SDS011;63796;53.136;14.882;2023-08-06T12:13:51;7.30;;;2.00;;
75209;SDS011;63796;53.136;14.882;2023-08-06T12:16:19;1.80;;;1.00;;
75209;SDS011;63796;53.136;14.882;2023-08-06T12:18:47;1.50;;;1.20;;
75209;SDS011;63796;53.136;14.882;2023-08-06T12:21:16;2.70;;;1.00;;
75209;SDS011;63796;53.136;14.882;2023-08-06T12:23:44;4.70;;;1.10;;
75209;SDS011;63796;53.136;14.882;2023-08-06T12:26:11;1.90;;;1.00;;
75209;SDS011;63796;53.136;14.882;2023-08-06T12:28:38;1.80;;;1.10;;
75209;SDS011;63796;53.136;14.882;2023-08-06T12:31:06;1.60;;;0.80;;
75209;SDS011;63796;53.136;14.882;2023-08-06T12:33:33;2.20;;;1.00;;
75209;SDS011;63796;53.136;14.882;2023-08-06T12:36:00;3.10;;;1.00;;
75209;SDS011;63796;53.136;14.882;2023-08-06T12:38:28;2.20;;;0.70;;
75209;SDS011;63796;53.136;14.882;2023-08-06T12:40:59;1.90;;;1.00;;
75209;SDS011;63796;53.136;14.882;2023-08-06T12:43:27;1.50;;;0.90;;
75209;SDS011;63796;53.136;14.882;2023-08-06T12:45:54;2.90;;;0.90;;
75209;SDS011;63796;53.136;14.882;2023-08-06T12:48:22;0.70;;;0.60;;
75209;SDS011;63796;53.136;14.882;2023-08-06T12:50:49;1.60;;;0.60;;
75209;SDS011;63796;53.136;14.882;2023-08-06T12:53:16;2.10;;;0.60;;
75209;SDS011;63796;53.136;14.882;2023-08-06T12:55:44;2.60;;;0.90;;
75209;SDS011;63796;53.136;14.882;2023-08-06T12:58:11;2.10;;;1.10;;
75209;SDS011;63796;53.136;14.882;2023-08-06T13:00:39;1.80;;;1.10;;
75209;SDS011;63796;53.136;14.882;2023-08-06T13:03:06;2.60;;;1.20;;
75209;SDS011;63796;53.136;14.882;2023-08-06T13:05:34;1.90;;;0.70;;
75209;SDS011;63796;53.136;14.882;2023-08-06T13:08:01;2.50;;;1.70;;
75209;SDS011;63796;53.136;14.882;2023-08-06T13:10:29;3.80;;;1.70;;
75209;SDS011;63796;53.136;14.882;2023-08-06T13:12:58;1.60;;;1.10;;
75209;SDS011;63796;53.136;14.882;2023-08-06T13:15:26;2.60;;;2.00;;
75209;SDS011;63796;53.136;14.882;2023-08-06T13:17:53;2.80;;;1.50;;
75209;SDS011;63796;53.136;14.882;2023-08-06T13:20:21;1.20;;;0.80;;
75209;SDS011;63796;53.136;14.882;2023-08-06T13:22:50;3.40;;;1.00;;
75209;SDS011;63796;53.136;14.882;2023-08-06T13:25:20;1.90;;;0.80;;
75209;SDS011;63796;53.136;14.882;2023-08-06T13:27:47;1.50;;;0.80;;
75209;SDS011;63796;53.136;14.882;2023-08-06T13:30:16;3.60;;;0.80;;
75209;SDS011;63796;53.136;14.882;2023-08-06T13:32:45;1.40;;;0.80;;
75209;SDS011;63796;53.136;14.882;2023-08-06T13:35:14;3.90;;;1.00;;
75209;SDS011;63796;53.136;14.882;2023-08-06T13:37:42;2.90;;;1.20;;
75209;SDS011;63796;53.136;14.882;2023-08-06T13:40:09;0.90;;;0.50;;
75209;SDS011;63796;53.136;14.882;2023-08-06T13:42:39;2.60;;;0.80;;
75209;SDS011;63796;53.136;14.882;2023-08-06T13:45:07;2.10;;;0.60;;
75209;SDS011;63796;53.136;14.882;2023-08-06T13:47:34;1.40;;;0.80;;
75209;SDS011;63796;53.136;14.882;2023-08-06T13:50:04;2.50;;;1.10;;
75209;SDS011;63796;53.136;14.882;2023-08-06T13:52:33;1.30;;;0.70;;
75209;SDS011;63796;53.136;14.882;2023-08-06T13:55:02;1.70;;;0.50;;
75209;SDS011;63796;53.136;14.882;2023-08-06T13:57:31;3.60;;;0.80;;
75209;SDS011;63796;53.136;14.882;2023-08-06T13:59:59;2.80;;;0.90;;
75209;SDS011;63796;53.136;14.882;2023-08-06T14:02:26;2.80;;;1.40;;
75209;SDS011;63796;53.136;14.882;2023-08-06T14:04:55;4.50;;;1.10;;
75209;SDS011;63796;53.136;14.882;2023-08-06T14:07:22;3.30;;;1.00;;
75209;SDS011;63796;53.136;14.882;2023-08-06T14:09:50;2.40;;;0.80;;
75209;SDS011;63796;53.136;14.882;2023-08-06T14:12:17;3.30;;;1.10;;
75209;SDS011;63796;53.136;14.882;2023-08-06T14:14:45;3.60;;;0.90;;
75209;SDS011;63796;53.136;14.882;2023-08-06T14:17:12;3.50;;;0.70;;
75209;SDS011;63796;53.136;14.882;2023-08-06T14:19:39;1.60;;;0.60;;
75209;SDS011;63796;53.136;14.882;2023-08-06T14:22:07;1.70;;;0.50;;
75209;SDS011;63796;53.136;14.882;2023-08-06T14:24:34;4.70;;;1.20;;
75209;SDS011;63796;53.136;14.882;2023-08-06T14:27:01;1.70;;;0.60;;
75209;SDS011;63796;53.136;14.882;2023-08-06T14:29:31;1.10;;;0.70;;
75209;SDS011;63796;53.136;14.882;2023-08-06T14:31:58;3.00;;;0.80;;
75209;SDS011;63796;53.136;14.882;2023-08-06T14:34:26;1.90;;;0.90;;
75209;SDS011;63796;53.136;14.882;2023-08-06T14:36:54;4.40;;;0.90;;
75209;SDS011;63796;53.136;14.882;2023-08-06T14:39:22;3.20;;;0.90;;
75209;SDS011;63796;53.136;14.882;2023-08-06T14:41:50;4.20;;;1.30;;
75209;SDS011;63796;53.136;14.882;2023-08-06T14:44:19;3.20;;;1.60;;
75209;SDS011;63796;53.136;14.882;2023-08-06T14:46:46;3.00;;;2.20;;
75209;SDS011;63796;53.136;14.882;2023-08-06T14:49:15;5.30;;;3.10;;
75209;SDS011;63796;53.136;14.882;2023-08-06T14:51:42;5.70;;;3.60;;
75209;SDS011;63796;53.136;14.882;2023-08-06T14:54:10;3.40;;;2.30;;
75209;SDS011;63796;53.136;14.882;2023-08-06T14:56:37;2.70;;;2.30;;
75209;SDS011;63796;53.136;14.882;2023-08-06T14:59:06;4.20;;;1.40;;
75209;SDS011;63796;53.136;14.882;2023-08-06T15:01:33;3.20;;;1.00;;
75209;SDS011;63796;53.136;14.882;2023-08-06T15:04:01;2.70;;;1.60;;
75209;SDS011;63796;53.136;14.882;2023-08-06T15:06:29;2.80;;;1.00;;
75209;SDS011;63796;53.136;14.882;2023-08-06T15:08:56;1.20;;;0.60;;
75209;SDS011;63796;53.136;14.882;2023-08-06T15:11:28;1.30;;;1.00;;
75209;SDS011;63796;53.136;14.882;2023-08-06T15:13:56;2.40;;;0.40;;
75209;SDS011;63796;53.136;14.882;2023-08-06T15:16:25;1.50;;;0.90;;
75209;SDS011;63796;53.136;14.882;2023-08-06T15:18:52;1.70;;;0.80;;
75209;SDS011;63796;53.136;14.882;2023-08-06T15:21:20;4.10;;;1.00;;
75209;SDS011;63796;53.136;14.882;2023-08-06T15:23:47;4.40;;;1.30;;
75209;SDS011;63796;53.136;14.882;2023-08-06T15:26:14;4.80;;;3.30;;
75209;SDS011;63796;53.136;14.882;2023-08-06T15:28:43;2.30;;;1.10;;
75209;SDS011;63796;53.136;14.882;2023-08-06T15:31:11;2.90;;;0.90;;
75209;SDS011;63796;53.136;14.882;2023-08-06T15:33:39;3.90;;;2.30;;
75209;SDS011;63796;53.136;14.882;2023-08-06T15:36:07;4.90;;;2.50;;
75209;SDS011;63796;53.136;14.882;2023-08-06T15:38:34;2.90;;;1.50;;
75209;SDS011;63796;53.136;14.882;2023-08-06T15:41:01;3.90;;;1.20;;
75209;SDS011;63796;53.136;14.882;2023-08-06T15:43:29;2.20;;;1.20;;
75209;SDS011;63796;53.136;14.882;2023-08-06T15:45:58;3.60;;;1.20;;
75209;SDS011;63796;53.136;14.882;2023-08-06T15:48:25;2.00;;;1.60;;
75209;SDS011;63796;53.136;14.882;2023-08-06T15:50:55;1.80;;;1.10;;
75209;SDS011;63796;53.136;14.882;2023-08-06T15:53:23;2.10;;;0.90;;
75209;SDS011;63796;53.136;14.882;2023-08-06T15:55:50;1.50;;;0.70;;
75209;SDS011;63796;53.136;14.882;2023-08-06T15:58:18;2.30;;;1.10;;
75209;SDS011;63796;53.136;14.882;2023-08-06T16:00:45;1.50;;;0.60;;
75209;SDS011;63796;53.136;14.882;2023-08-06T16:03:12;2.20;;;0.50;;
75209;SDS011;63796;53.136;14.882;2023-08-06T16:05:40;1.00;;;0.50;;
75209;SDS011;63796;53.136;14.882;2023-08-06T16:08:07;2.90;;;1.50;;
75209;SDS011;63796;53.136;14.882;2023-08-06T16:10:34;3.10;;;0.80;;
75209;SDS011;63796;53.136;14.882;2023-08-06T16:13:02;1.20;;;0.60;;
75209;SDS011;63796;53.136;14.882;2023-08-06T16:15:30;5.40;;;1.30;;
75209;SDS011;63796;53.136;14.882;2023-08-06T16:17:57;3.30;;;1.90;;
75209;SDS011;63796;53.136;14.882;2023-08-06T16:20:25;5.20;;;2.80;;
75209;SDS011;63796;53.136;14.882;2023-08-06T16:22:53;2.50;;;1.70;;
75209;SDS011;63796;53.136;14.882;2023-08-06T16:25:20;3.30;;;2.10;;
75209;SDS011;63796;53.136;14.882;2023-08-06T16:27:47;4.50;;;1.60;;
75209;SDS011;63796;53.136;14.882;2023-08-06T16:30:16;1.40;;;1.00;;
75209;SDS011;63796;53.136;14.882;2023-08-06T16:32:44;2.50;;;1.70;;
75209;SDS011;63796;53.136;14.882;2023-08-06T16:35:12;6.10;;;1.40;;
75209;SDS011;63796;53.136;14.882;2023-08-06T16:37:39;3.10;;;1.90;;
75209;SDS011;63796;53.136;14.882;2023-08-06T16:40:07;1.20;;;0.50;;
75209;SDS011;63796;53.136;14.882;2023-08-06T16:42:36;2.50;;;0.80;;
75209;SDS011;63796;53.136;14.882;2023-08-06T16:45:04;3.10;;;1.40;;
75209;SDS011;63796;53.136;14.882;2023-08-06T16:47:32;1.60;;;0.80;;
75209;SDS011;63796;53.136;14.882;2023-08-06T16:49:59;1.80;;;0.70;;
75209;SDS011;63796;53.136;14.882;2023-08-06T16:52:27;2.90;;;0.40;;
75209;SDS011;63796;53.136;14.882;2023-08-06T16:54:55;12.60;;;4.90;;